Time;durP1;ratioP1;P1;durP2;ratioP2;P2;SDS_P1;SDS_P2;PMS_P1;PMS_P2;Temp;Humidity;BMP_temperature;BMP_pressure;BME280_temperature;BME280_humidity;BME280_pressure;Samples;Min_cycle;Max_cycle;Signal;HPM_P1;HPM_P2
2021/04/13 00:02:55;;;;;;;10.40;5.80;;;0.60;99.90;;;;;;6223777;28;20133;-74
2021/04/13 00:05:56;;;;;;;8.23;5.80;;;0.60;99.90;;;;;;6239009;28;20054;-75
2021/04/13 00:09:01;;;;;;;9.80;6.60;;;0.70;99.90;;;;;;6246244;28;20065;-75
2021/04/13 00:12:07;;;;;;;8.07;7.07;;;0.50;99.90;;;;;;6248132;28;20072;-75
2021/04/13 00:15:11;;;;;;;8.97;6.63;;;0.50;99.90;;;;;;6248245;28;20140;-74
2021/04/13 00:18:15;;;;;;;8.30;5.83;;;0.40;99.90;;;;;;6248349;28;20037;-74
2021/04/13 00:21:20;;;;;;;14.13;7.10;;;0.40;99.90;;;;;;6247733;28;20220;-75
2021/04/13 00:24:25;;;;;;;5.90;5.17;;;0.40;99.90;;;;;;6247331;28;20462;-75
2021/04/13 00:27:30;;;;;;;8.00;6.33;;;0.40;99.90;;;;;;6247692;28;20080;-75
2021/04/13 00:30:42;;;;;;;7.00;6.03;;;0.40;99.90;;;;;;6247754;28;20395;-75
2021/04/13 00:33:44;;;;;;;6.77;6.17;;;0.30;99.90;;;;;;6247369;28;20121;-74
2021/04/13 00:36:48;;;;;;;8.93;5.43;;;0.40;99.90;;;;;;6247938;28;20069;-75
2021/04/13 00:39:51;;;;;;;8.77;7.87;;;0.30;99.90;;;;;;6246383;28;20125;-75
2021/04/13 00:42:54;;;;;;;8.17;6.43;;;0.30;99.90;;;;;;6246435;28;20139;-75
2021/04/13 00:45:57;;;;;;;10.70;6.67;;;0.30;99.90;;;;;;6246439;28;20095;-74
2021/04/13 00:49:02;;;;;;;8.23;7.03;;;0.20;99.90;;;;;;6246664;28;20041;-76
2021/04/13 00:52:06;;;;;;;7.77;6.97;;;0.20;99.90;;;;;;6247037;28;20614;-75
2021/04/13 00:55:12;;;;;;;12.70;8.47;;;0.10;99.90;;;;;;6247048;28;20510;-75
2021/04/13 00:58:18;;;;;;;8.53;7.10;;;0.00;99.90;;;;;;6246859;28;20132;-75
2021/04/13 01:01:22;;;;;;;7.87;7.07;;;0.00;99.90;;;;;;6246544;28;20131;-74
2021/04/13 01:04:33;;;;;;;7.50;6.80;;;0.10;99.90;;;;;;6246616;28;20041;-75
2021/04/13 01:07:37;;;;;;;7.80;6.80;;;0.10;99.90;;;;;;6246241;28;20108;-74
2021/04/13 01:10:38;;;;;;;8.17;7.47;;;0.10;99.90;;;;;;6247205;28;20124;-75
2021/04/13 01:13:45;;;;;;;8.47;7.40;;;0.10;99.90;;;;;;6245812;28;20176;-74
2021/04/13 01:16:51;;;;;;;5.22;4.78;;;0.10;99.90;;;;;;6246378;28;20124;-75
2021/04/13 01:19:59;;;;;;;8.80;7.63;;;0.10;99.90;;;;;;6245743;28;20091;-75
2021/04/13 01:23:04;;;;;;;6.72;6.03;;;0.20;99.90;;;;;;6246103;28;20049;-75
2021/04/13 01:26:06;;;;;;;7.27;6.57;;;0.30;99.90;;;;;;6248574;28;20132;-75
2021/04/13 01:29:09;;;;;;;8.77;6.30;;;0.20;99.90;;;;;;6250573;28;20052;-75
2021/04/13 01:32:13;;;;;;;8.23;7.43;;;0.20;99.90;;;;;;6250375;28;20529;-75
2021/04/13 01:35:16;;;;;;;7.43;6.73;;;0.30;99.90;;;;;;6250405;28;20088;-75
2021/04/13 01:38:21;;;;;;;7.67;6.37;;;0.40;99.90;;;;;;6250454;28;20491;-75
2021/04/13 01:41:29;;;;;;;8.97;7.97;;;0.40;99.90;;;;;;6250121;28;20045;-75
2021/04/13 01:44:35;;;;;;;7.20;6.40;;;0.50;99.90;;;;;;6250423;28;20049;-75
2021/04/13 01:47:37;;;;;;;10.70;7.67;;;0.60;99.90;;;;;;6250460;28;20050;-74
2021/04/13 01:50:41;;;;;;;11.50;8.43;;;0.70;99.90;;;;;;6250846;28;20053;-75
2021/04/13 01:53:47;;;;;;;16.87;7.53;;;0.80;99.90;;;;;;6249566;28;20052;-75
2021/04/13 01:57:01;;;;;;;7.60;6.90;;;0.90;99.90;;;;;;6250214;28;20175;-75
2021/04/13 02:00:10;;;;;;;8.80;6.23;;;0.90;99.90;;;;;;6250278;28;20124;-75
2021/04/13 02:03:14;;;;;;;6.40;5.70;;;1.00;99.90;;;;;;6250530;28;20565;-74
2021/04/13 02:06:22;;;;;;;10.80;6.80;;;1.00;99.90;;;;;;6250244;28;20050;-75
2021/04/13 02:09:29;;;;;;;8.32;7.00;;;1.00;99.90;;;;;;6250201;28;20104;-74
2021/04/13 02:12:34;;;;;;;9.27;7.20;;;1.10;99.90;;;;;;6249795;28;20041;-75
2021/04/13 02:15:43;;;;;;;7.60;6.63;;;1.20;99.90;;;;;;6293935;22;20068;-77
2021/04/13 02:18:47;;;;;;;9.43;7.07;;;1.30;99.90;;;;;;6274943;28;20079;-77
2021/04/13 02:21:51;;;;;;;6.73;5.37;;;1.40;99.90;;;;;;6274868;28;20141;-77
2021/04/13 02:24:55;;;;;;;9.50;7.07;;;1.50;99.90;;;;;;6274977;28;20087;-77
2021/04/13 02:27:57;;;;;;;8.43;7.10;;;1.60;99.90;;;;;;6275433;28;20045;-78
2021/04/13 02:31:05;;;;;;;10.33;6.40;;;1.80;99.90;;;;;;6275558;28;20136;-77
2021/04/13 02:34:11;;;;;;;7.13;6.43;;;2.00;99.90;;;;;;6274061;28;20040;-76
2021/04/13 02:37:18;;;;;;;12.30;7.03;;;1.90;99.90;;;;;;6273858;28;20045;-75
2021/04/13 02:40:25;;;;;;;7.50;6.80;;;2.00;99.90;;;;;;6274147;28;20072;-77
2021/04/13 02:43:30;;;;;;;8.20;6.30;;;2.00;99.90;;;;;;6274631;28;20069;-77
2021/04/13 02:46:34;;;;;;;7.47;6.57;;;2.10;99.90;;;;;;6274304;28;20056;-77
2021/04/13 02:49:40;;;;;;;9.53;6.40;;;2.10;99.90;;;;;;6273652;28;20045;-76
2021/04/13 02:52:47;;;;;;;7.33;6.63;;;2.10;99.90;;;;;;6274011;28;20045;-77
2021/04/13 02:55:51;;;;;;;8.80;7.50;;;2.10;99.90;;;;;;6273475;28;20138;-77
2021/04/13 02:59:04;;;;;;;8.97;6.80;;;2.10;99.90;;;;;;6273868;28;20059;-77
2021/04/13 03:02:10;;;;;;;7.97;6.47;;;2.00;99.90;;;;;;6273671;28;20127;-76
2021/04/13 03:05:15;;;;;;;8.13;7.33;;;2.00;99.90;;;;;;6273359;28;20048;-76
2021/04/13 03:08:18;;;;;;;9.10;7.13;;;1.90;99.90;;;;;;6273587;28;20498;-76
2021/04/13 03:11:24;;;;;;;10.43;8.70;;;1.90;99.90;;;;;;6273412;28;20080;-76
2021/04/13 03:14:27;;;;;;;9.40;8.20;;;1.90;99.90;;;;;;6273443;28;20056;-75
2021/04/13 03:17:32;;;;;;;10.27;8.17;;;1.90;99.90;;;;;;6273116;28;20124;-76
2021/04/13 03:20:38;;;;;;;14.83;9.03;;;1.90;99.90;;;;;;6273041;28;20131;-76
2021/04/13 03:23:42;;;;;;;11.00;8.37;;;1.90;99.90;;;;;;6273047;28;20052;-76
2021/04/13 03:26:46;;;;;;;9.60;8.63;;;2.10;99.90;;;;;;6272732;28;20549;-76
2021/04/13 03:30:02;;;;;;;9.40;8.37;;;2.20;99.90;;;;;;6272531;28;20076;-75
2021/04/13 03:33:10;;;;;;;10.07;7.97;;;2.30;99.90;;;;;;6272411;28;20514;-75
2021/04/13 03:36:16;;;;;;;12.68;7.35;;;2.30;99.90;;;;;;6272491;28;20167;-76
2021/04/13 03:39:26;;;;;;;8.73;6.90;;;2.30;99.90;;;;;;6272415;28;20171;-76
2021/04/13 03:42:31;;;;;;;9.37;8.27;;;2.20;99.90;;;;;;6272644;28;20044;-76
2021/04/13 03:45:34;;;;;;;10.03;8.77;;;2.10;99.90;;;;;;6272330;28;20053;-76
2021/04/13 03:48:36;;;;;;;11.10;7.97;;;2.10;99.90;;;;;;6271518;28;20124;-77
2021/04/13 03:51:42;;;;;;;8.47;7.53;;;2.00;99.90;;;;;;6272675;28;20051;-76
2021/04/13 03:54:44;;;;;;;11.53;9.27;;;1.90;99.90;;;;;;6272561;28;20076;-76
2021/04/13 03:57:46;;;;;;;10.63;8.17;;;1.80;99.90;;;;;;6272017;28;20069;-77
2021/04/13 04:00:48;;;;;;;11.17;8.60;;;1.80;99.90;;;;;;6272268;28;20068;-76
2021/04/13 04:03:53;;;;;;;10.93;8.27;;;1.80;99.90;;;;;;6272247;28;20131;-76
2021/04/13 04:06:57;;;;;;;10.20;7.47;;;1.90;99.90;;;;;;6272291;28;20060;-75
2021/04/13 04:09:59;;;;;;;11.57;9.10;;;1.90;99.90;;;;;;6271765;28;20098;-75
2021/04/13 04:13:03;;;;;;;8.80;7.83;;;1.90;99.90;;;;;;6271992;28;20132;-75
2021/04/13 04:16:12;;;;;;;8.53;7.70;;;1.90;99.90;;;;;;6272077;28;20116;-75
2021/04/13 04:19:19;;;;;;;10.63;8.07;;;1.90;99.90;;;;;;6272858;28;20053;-75
2021/04/13 04:22:22;;;;;;;9.03;8.10;;;2.00;99.90;;;;;;6271880;28;20136;-75
2021/04/13 04:25:33;;;;;;;12.13;8.83;;;1.90;99.90;;;;;;6270900;28;20072;-75
2021/04/13 04:28:36;;;;;;;9.63;8.63;;;2.00;99.90;;;;;;6271469;28;20049;-75
2021/04/13 04:31:39;;;;;;;8.17;7.30;;;2.00;99.90;;;;;;6271583;28;20041;-76
2021/04/13 04:34:54;;;;;;;9.60;8.60;;;2.10;99.90;;;;;;6271753;28;20053;-76
2021/04/13 04:38:06;;;;;;;8.80;7.90;;;2.20;99.90;;;;;;6271594;28;20455;-76
2021/04/13 04:41:12;;;;;;;15.17;10.33;;;2.20;99.90;;;;;;6271414;28;20045;-76
2021/04/13 04:44:20;;;;;;;10.60;9.50;;;2.30;99.90;;;;;;6271087;28;20076;-75
2021/04/13 04:47:36;;;;;;;11.77;9.90;;;2.30;99.90;;;;;;6271412;28;20071;-76
2021/04/13 04:50:38;;;;;;;11.07;9.30;;;2.30;99.90;;;;;;6271848;28;20087;-76
2021/04/13 04:53:41;;;;;;;10.33;8.73;;;2.30;99.90;;;;;;6271395;28;20044;-76
2021/04/13 04:56:43;;;;;;;12.30;10.63;;;2.40;99.90;;;;;;6270809;28;20053;-76
2021/04/13 04:59:45;;;;;;;11.77;9.03;;;2.40;99.90;;;;;;6274282;28;20132;-76
2021/04/13 05:02:46;;;;;;;13.03;10.60;;;2.30;99.90;;;;;;6276277;28;20081;-75
2021/04/13 05:05:48;;;;;;;10.80;8.37;;;2.30;99.90;;;;;;6281756;28;20060;-75
2021/04/13 05:08:49;;;;;;;16.27;11.97;;;2.20;99.90;;;;;;6281110;28;20498;-76
2021/04/13 05:11:51;;;;;;;15.73;12.27;;;2.30;99.90;;;;;;6275836;28;20067;-76
2021/04/13 05:14:53;;;;;;;15.40;11.73;;;2.30;99.90;;;;;;6276457;28;20156;-76
2021/04/13 05:17:54;;;;;;;15.43;12.67;;;2.20;99.90;;;;;;6275960;28;20269;-76
2021/04/13 05:20:55;;;;;;;14.13;12.63;;;2.20;99.90;;;;;;6276652;28;20079;-75
2021/04/13 05:23:57;;;;;;;17.60;12.27;;;2.20;99.90;;;;;;6275437;28;20430;-76
2021/04/13 05:26:59;;;;;;;15.43;12.30;;;2.20;99.90;;;;;;6276545;28;20135;-76
2021/04/13 05:30:00;;;;;;;15.60;11.23;;;2.20;99.90;;;;;;6275812;28;20156;-76
2021/04/13 05:33:02;;;;;;;18.70;14.70;;;2.20;99.90;;;;;;6275462;28;20178;-76
2021/04/13 05:36:04;;;;;;;13.93;12.43;;;2.30;99.90;;;;;;6276249;28;20037;-76
2021/04/13 05:39:06;;;;;;;18.57;12.17;;;2.30;99.90;;;;;;6276054;28;20125;-76
2021/04/13 05:42:19;;;;;;;12.73;10.47;;;2.40;99.90;;;;;;6275288;28;20048;-76
2021/04/13 05:45:21;;;;;;;18.47;14.07;;;2.50;99.90;;;;;;6275160;28;20132;-76
2021/04/13 05:48:22;;;;;;;16.73;14.97;;;2.60;99.90;;;;;;6274829;28;20503;-76
2021/04/13 05:51:24;;;;;;;19.57;13.27;;;2.70;99.90;;;;;;6275505;28;20209;-76
2021/04/13 05:54:25;;;;;;;20.27;12.27;;;2.70;99.90;;;;;;6275063;28;20135;-76
2021/04/13 05:57:31;;;;;;;16.07;12.73;;;2.80;99.90;;;;;;6275201;28;20072;-76
2021/04/13 06:00:33;;;;;;;15.37;10.57;;;2.90;99.90;;;;;;6274678;28;20055;-77
2021/04/13 06:03:35;;;;;;;21.30;13.83;;;3.00;99.90;;;;;;6269771;28;20732;-77
2021/04/13 06:06:36;;;;;;;20.30;12.37;;;3.20;99.90;;;;;;6270293;28;20045;-77
2021/04/13 06:09:37;;;;;;;15.00;12.27;;;3.30;99.90;;;;;;6274373;28;20164;-77
2021/04/13 06:12:40;;;;;;;13.07;11.13;;;3.30;99.90;;;;;;6274042;28;20041;-77
2021/04/13 06:15:41;;;;;;;16.73;12.27;;;3.50;99.90;;;;;;6274100;28;20091;-76
2021/04/13 06:18:42;;;;;;;16.80;13.73;;;3.70;99.90;;;;;;6274873;28;20044;-75
2021/04/13 06:21:45;;;;;;;14.60;11.67;;;4.00;99.80;;;;;;6274062;28;20098;-76
2021/04/13 06:24:47;;;;;;;16.10;12.00;;;4.20;98.80;;;;;;6273775;28;20045;-77
2021/04/13 06:27:49;;;;;;;15.27;11.52;;;4.40;97.50;;;;;;6274270;28;20051;-75
2021/04/13 06:30:50;;;;;;;15.63;12.77;;;4.70;96.90;;;;;;6274436;28;20155;-75
2021/04/13 06:33:51;;;;;;;18.50;13.02;;;5.00;95.90;;;;;;6273759;28;20135;-76
2021/04/13 06:36:53;;;;;;;14.57;12.15;;;5.50;94.40;;;;;;6273866;28;20041;-75
2021/04/13 06:39:54;;;;;;;17.33;13.05;;;5.60;92.80;;;;;;6274026;28;20059;-76
2021/04/13 06:43:11;;;;;;;17.13;14.43;;;5.70;92.10;;;;;;6274030;28;20421;-76
2021/04/13 06:46:20;;;;;;;19.52;13.02;;;5.80;91.40;;;;;;6273232;28;20041;-76
2021/04/13 06:49:34;;;;;;;21.27;15.48;;;6.00;90.80;;;;;;6273640;28;20049;-76
2021/04/13 06:52:47;;;;;;;18.73;14.32;;;6.40;90.00;;;;;;6273578;28;20128;-77
2021/04/13 06:56:15;;;;;;;20.40;13.57;;;7.00;92.80;;;;;;6272839;28;20095;-77
2021/04/13 06:59:32;;;;;;;18.42;14.70;;;7.20;91.80;;;;;;6273504;28;20395;-77
2021/04/13 07:02:43;;;;;;;16.02;12.82;;;7.40;93.30;;;;;;6274425;28;20049;-77
2021/04/13 07:05:50;;;;;;;22.40;14.18;;;7.60;84.80;;;;;;6272814;28;20465;-77
2021/04/13 07:08:59;;;;;;;24.83;15.82;;;7.30;83.00;;;;;;6273104;28;20044;-76
2021/04/13 07:12:05;;;;;;;22.42;17.55;;;7.20;83.10;;;;;;6273660;28;20124;-77
2021/04/13 07:15:14;;;;;;;21.27;16.15;;;7.10;81.90;;;;;;6272896;28;20057;-77
2021/04/13 07:18:23;;;;;;;22.15;15.13;;;7.30;81.60;;;;;;6273192;28;20076;-76
2021/04/13 07:21:33;;;;;;;17.10;14.88;;;7.70;82.90;;;;;;6273040;28;20053;-77
2021/04/13 07:24:42;;;;;;;21.42;17.45;;;8.10;79.00;;;;;;6272322;28;20069;-77
2021/04/13 07:27:46;;;;;;;18.33;14.27;;;8.00;76.70;;;;;;6272697;28;20139;-76
2021/04/13 07:30:54;;;;;;;16.85;13.07;;;8.10;74.10;;;;;;6273211;28;20139;-78
2021/04/13 07:33:56;;;;;;;15.90;13.73;;;8.10;71.60;;;;;;6272108;28;20045;-77
2021/04/13 07:37:02;;;;;;;19.92;13.48;;;8.00;69.60;;;;;;6274950;28;20064;-76
2021/04/13 07:40:10;;;;;;;20.10;13.50;;;8.10;68.50;;;;;;6272955;28;20091;-76
2021/04/13 07:43:20;;;;;;;16.98;15.18;;;8.40;67.50;;;;;;6273640;28;20053;-76
2021/04/13 07:46:41;;;;;;;17.17;13.60;;;8.70;66.90;;;;;;6273329;28;20044;-77
2021/04/13 07:49:49;;;;;;;16.50;13.70;;;8.80;64.70;;;;;;6272440;28;20128;-77
2021/04/13 07:52:59;;;;;;;15.20;12.65;;;8.60;64.40;;;;;;6272018;28;20052;-78
2021/04/13 07:56:08;;;;;;;14.32;12.13;;;8.50;65.60;;;;;;6271820;28;20091;-77
2021/04/13 07:59:19;;;;;;;14.15;11.02;;;8.90;64.60;;;;;;6272536;28;20057;-76
2021/04/13 08:02:22;;;;;;;17.63;14.02;;;9.50;63.10;;;;;;6272110;28;20045;-76
2021/04/13 08:05:39;;;;;;;15.93;13.27;;;10.00;61.50;;;;;;6271504;28;20103;-77
2021/04/13 08:08:45;;;;;;;17.10;13.38;;;10.50;59.80;;;;;;6271571;28;20072;-77
2021/04/13 08:12:19;;;;;;;14.65;11.73;;;10.80;58.10;;;;;;6272540;28;20738;-78
2021/04/13 08:15:45;;;;;;;19.45;12.52;;;11.10;57.20;;;;;;6270933;28;20122;-77
2021/04/13 08:18:47;;;;;;;14.02;11.45;;;11.30;56.40;;;;;;6272461;28;20056;-76
2021/04/13 08:22:00;;;;;;;15.45;11.82;;;11.50;56.70;;;;;;6272761;28;20052;-75
2021/04/13 08:25:02;;;;;;;14.07;12.27;;;11.70;55.00;;;;;;6271713;28;20056;-75
2021/04/13 08:28:09;;;;;;;19.52;13.27;;;11.90;54.40;;;;;;6271945;28;20045;-75
2021/04/13 08:34:52;;;;;;;15.98;12.90;;;11.70;53.50;;;;;;6271865;28;20048;-75
2021/04/13 08:38:03;;;;;;;16.73;12.73;;;11.40;54.40;;;;;;6271924;28;20119;-75
2021/04/13 08:41:24;;;;;;;16.63;13.43;;;11.10;54.80;;;;;;6271740;28;20132;-75
2021/04/13 08:44:34;;;;;;;18.30;13.63;;;11.00;53.60;;;;;;6272262;28;20468;-75
2021/04/13 08:47:44;;;;;;;14.27;12.73;;;10.70;54.30;;;;;;6287111;28;20060;-76
2021/04/13 08:50:48;;;;;;;14.20;12.68;;;10.40;55.60;;;;;;6303732;28;20040;-76
2021/04/13 08:54:07;;;;;;;15.60;12.98;;;10.50;56.50;;;;;;6302662;28;20055;-77
2021/04/13 08:57:28;;;;;;;14.05;11.68;;;11.00;54.70;;;;;;6303468;28;20060;-78
2021/04/13 09:00:44;;;;;;;14.07;12.48;;;11.20;54.50;;;;;;6302950;28;20057;-76
2021/04/13 09:03:45;;;;;;;17.23;12.23;;;11.20;53.00;;;;;;6302494;28;20033;-77
2021/04/13 09:06:56;;;;;;;16.10;13.70;;;11.40;53.30;;;;;;6281387;28;20061;-76
2021/04/13 09:10:16;;;;;;;15.93;13.45;;;11.50;53.40;;;;;;6272185;28;20449;-76
2021/04/13 09:13:29;;;;;;;15.68;14.02;;;11.30;54.50;;;;;;6274113;28;20073;-76
2021/04/13 09:16:35;;;;;;;17.38;13.38;;;10.80;54.50;;;;;;6274397;28;20171;-76
2021/04/13 09:19:52;;;;;;;16.25;13.57;;;10.20;55.30;;;;;;6273177;28;20072;-76
2021/04/13 09:23:07;;;;;;;13.30;11.90;;;9.90;57.00;;;;;;6274486;28;20049;-76
2021/04/13 09:26:21;;;;;;;14.80;12.45;;;9.50;56.80;;;;;;6268118;28;20176;-75
2021/04/13 09:29:40;;;;;;;15.30;13.45;;;9.40;57.10;;;;;;6272692;28;20041;-77
2021/04/13 09:32:45;;;;;;;17.25;12.60;;;9.40;56.90;;;;;;6273415;28;20506;-77
2021/04/13 09:36:15;;;;;;;13.23;10.73;;;9.20;56.70;;;;;;6271390;28;20072;-76
2021/04/13 09:39:42;;;;;;;16.48;12.13;;;9.20;56.80;;;;;;6275853;28;20533;-76
2021/04/13 09:43:11;;;;;;;14.15;11.68;;;9.30;56.70;;;;;;6272479;28;20071;-77
2021/04/13 09:46:26;;;;;;;14.15;11.38;;;9.40;59.20;;;;;;6272234;28;20075;-77
2021/04/13 09:49:48;;;;;;;14.45;12.02;;;9.70;56.20;;;;;;6278735;28;20071;-77
2021/04/13 09:53:18;;;;;;;11.93;10.52;;;9.70;54.20;;;;;;6277593;28;20524;-78
2021/04/13 09:56:47;;;;;;;13.77;12.38;;;9.80;52.70;;;;;;6259177;28;20068;-78
2021/04/13 10:00:36;;;;;;;10.15;9.07;;;10.10;52.90;;;;;;6281999;28;20095;-78
2021/04/13 10:04:11;;;;;;;11.25;10.23;;;11.00;54.60;;;;;;6231475;28;20053;-78
2021/04/13 10:07:20;;;;;;;13.75;9.60;;;11.10;52.60;;;;;;6281912;28;20051;-78
2021/04/13 10:10:24;;;;;;;10.15;9.07;;;11.30;51.10;;;;;;6282772;28;20125;-79
2021/04/13 10:13:59;;;;;;;13.35;11.13;;;11.80;48.00;;;;;;6281499;28;20510;-79
2021/04/13 10:17:13;;;;;;;9.38;8.48;;;11.90;48.70;;;;;;6274013;28;20044;-76
2021/04/13 10:20:36;;;;;;;9.10;8.20;;;12.00;47.60;;;;;;6275303;28;20140;-77
2021/04/13 10:24:06;;;;;;;11.70;8.88;;;11.90;46.80;;;;;;6280378;28;20168;-77
2021/04/13 10:27:44;;;;;;;9.32;8.27;;;11.90;47.20;;;;;;6279672;28;20072;-78
2021/04/13 10:31:19;;;;;;;7.72;6.93;;;12.10;47.90;;;;;;6279046;28;20088;-77
2021/04/13 10:35:06;;;;;;;6.88;6.28;;;12.40;44.40;;;;;;6280741;28;20094;-78
2021/04/13 10:38:43;;;;;;;8.48;7.10;;;12.80;45.40;;;;;;6275408;28;20075;-80
2021/04/13 10:42:22;;;;;;;7.68;6.97;;;13.30;44.40;;;;;;6260446;28;20072;-77
2021/04/13 10:45:42;;;;;;;10.25;6.97;;;12.90;40.90;;;;;;6272525;28;20083;-77
2021/04/13 10:48:57;;;;;;;8.13;7.32;;;12.50;43.00;;;;;;6273439;28;20045;-77
2021/04/13 10:52:36;;;;;;;7.18;6.47;;;12.90;42.60;;;;;;6272481;28;20120;-77
2021/04/13 10:55:48;;;;;;;;;;;13.60;41.50;;;;;;6272340;28;20128;-77
2021/04/13 10:59:30;;;;;;;8.07;7.28;;;13.70;41.60;;;;;;6274783;28;20015;-77
2021/04/13 11:03:08;;;;;;;8.05;6.85;;;13.50;40.20;;;;;;6276221;28;20123;-77
2021/04/13 11:06:47;;;;;;;8.60;6.82;;;13.40;39.90;;;;;;6273983;28;20652;-77
2021/04/13 11:10:45;;;;;;;6.80;6.22;;;13.50;40.10;;;;;;6272446;28;20112;-77
2021/04/13 11:14:24;;;;;;;7.68;5.95;;;14.00;39.60;;;;;;6188502;28;20056;-77
2021/04/13 11:17:55;;;;;;;9.02;5.80;;;13.90;37.50;;;;;;6275264;28;20530;-77
2021/04/13 11:21:31;;;;;;;6.82;6.20;;;13.60;36.80;;;;;;6272536;28;20042;-76
2021/04/13 11:24:40;;;;;;;6.72;6.10;;;13.10;37.10;;;;;;6272366;28;20450;-77
2021/04/13 11:28:14;;;;;;;7.97;7.25;;;12.90;38.70;;;;;;6273223;28;20040;-77
2021/04/13 11:31:38;;;;;;;9.15;6.75;;;13.60;38.40;;;;;;6273255;28;20135;-78
2021/04/13 11:34:56;;;;;;;8.52;6.57;;;14.20;37.50;;;;;;6271670;28;20052;-77
2021/04/13 11:38:27;;;;;;;7.25;6.55;;;13.80;36.80;;;;;;6273464;28;20045;-77
2021/04/13 11:42:20;;;;;;;7.72;6.85;;;13.00;37.70;;;;;;6272764;28;20615;-77
2021/04/13 11:45:36;;;;;;;8.25;7.20;;;12.00;40.30;;;;;;6271988;28;20126;-77
2021/04/13 11:48:45;;;;;;;6.90;5.63;;;11.40;40.30;;;;;;6272681;28;20136;-77
2021/04/13 11:51:54;;;;;;;10.13;6.10;;;11.10;42.40;;;;;;6272564;28;20041;-77
2021/04/13 11:54:56;;;;;;;8.75;6.75;;;11.40;43.80;;;;;;6276608;28;20048;-77
2021/04/13 11:58:09;;;;;;;7.78;7.00;;;12.10;40.40;;;;;;6272600;28;20048;-77
2021/04/13 12:01:34;;;;;;;6.05;5.45;;;12.90;38.70;;;;;;6273410;28;20083;-78
2021/04/13 12:04:43;;;;;;;17.02;7.18;;;13.30;37.40;;;;;;6272374;28;20132;-77
2021/04/13 12:07:46;;;;;;;6.68;5.95;;;13.20;36.60;;;;;;6272266;28;20040;-77
2021/04/13 12:10:55;;;;;;;5.57;5.07;;;13.20;37.20;;;;;;6273653;28;20178;-78
2021/04/13 12:13:57;;;;;;;7.35;5.80;;;13.20;37.30;;;;;;6273578;28;20057;-78
2021/04/13 12:17:37;;;;;;;7.00;6.30;;;13.30;37.20;;;;;;6272506;28;20129;-77
2021/04/13 12:20:42;;;;;;;6.25;5.47;;;13.50;37.20;;;;;;6271447;28;20076;-77
2021/04/13 12:23:53;;;;;;;7.43;6.07;;;13.80;37.40;;;;;;6272886;28;20044;-78
2021/04/13 12:26:54;;;;;;;6.88;6.28;;;13.90;36.50;;;;;;6272664;28;20450;-77
2021/04/13 12:30:49;;;;;;;6.75;6.15;;;13.70;36.90;;;;;;6273008;28;20076;-79
2021/04/13 12:34:03;;;;;;;6.20;5.60;;;13.50;36.50;;;;;;6273117;28;20083;-77
2021/04/13 12:37:04;;;;;;;6.32;5.35;;;13.70;35.40;;;;;;6274008;28;20076;-78
2021/04/13 12:40:31;;;;;;;5.90;5.32;;;13.80;34.90;;;;;;6286077;28;20049;-78
2021/04/13 12:43:41;;;;;;;7.60;5.53;;;14.10;35.40;;;;;;6281752;28;20128;-79
2021/04/13 12:46:45;;;;;;;6.63;6.03;;;14.60;36.10;;;;;;6282478;28;20087;-78
2021/04/13 12:49:48;;;;;;;6.00;5.50;;;14.60;33.80;;;;;;6274620;28;20553;-78
2021/04/13 12:52:50;;;;;;;5.55;5.05;;;14.20;32.60;;;;;;6274395;28;20064;-79
2021/04/13 12:56:03;;;;;;;6.47;5.60;;;13.70;34.50;;;;;;6272995;28;20455;-78
2021/04/13 12:59:11;;;;;;;10.02;7.40;;;14.00;34.80;;;;;;6273959;28;20088;-78
2021/04/13 13:02:28;;;;;;;9.80;7.65;;;14.40;34.50;;;;;;6272476;28;20045;-78
2021/04/13 13:05:34;;;;;;;15.60;6.30;;;14.50;33.80;;;;;;6270875;28;20076;-76
2021/04/13 13:08:35;;;;;;;7.80;7.10;;;14.40;34.10;;;;;;6268830;28;20056;-77
2021/04/13 13:11:38;;;;;;;5.78;5.18;;;14.60;33.90;;;;;;6273721;28;20487;-78
2021/04/13 13:14:43;;;;;;;6.18;5.32;;;14.60;32.60;;;;;;6271313;28;20502;-78
2021/04/13 13:17:48;;;;;;;7.07;5.68;;;14.30;32.50;;;;;;6270780;28;20124;-76
2021/04/13 13:20:57;;;;;;;9.30;6.97;;;14.00;32.00;;;;;;6273600;28;20510;-77
2021/04/13 13:24:01;;;;;;;6.25;5.65;;;13.70;33.10;;;;;;6275692;28;20041;-77
2021/04/13 13:27:14;;;;;;;6.57;4.97;;;13.80;33.50;;;;;;6274623;28;20139;-77
2021/04/13 13:30:18;;;;;;;5.28;4.78;;;14.00;32.90;;;;;;6274881;28;20056;-76
2021/04/13 13:33:21;;;;;;;5.07;4.60;;;14.30;34.10;;;;;;6274637;28;20049;-77
2021/04/13 13:36:24;;;;;;;6.75;6.07;;;14.50;32.60;;;;;;6274353;28;20124;-77
2021/04/13 13:39:29;;;;;;;5.82;5.22;;;14.50;32.30;;;;;;6275202;28;20049;-77
2021/04/13 13:42:31;;;;;;;5.30;4.80;;;14.60;32.20;;;;;;6275287;28;20194;-77
2021/04/13 13:45:39;;;;;;;5.32;4.65;;;14.50;31.70;;;;;;6274649;28;20072;-78
2021/04/13 13:48:40;;;;;;;4.07;3.67;;;14.60;31.60;;;;;;6274733;28;20537;-78
2021/04/13 13:51:56;;;;;;;9.88;6.70;;;14.60;31.60;;;;;;6275002;28;20124;-77
2021/04/13 13:55:10;;;;;;;4.55;3.92;;;14.40;31.20;;;;;;6259033;28;20427;-77
2021/04/13 13:58:24;;;;;;;6.03;4.07;;;14.50;30.60;;;;;;6250226;28;20061;-77
2021/04/13 14:01:26;;;;;;;4.57;4.18;;;14.50;30.80;;;;;;6250239;28;20076;-77
2021/04/13 14:04:29;;;;;;;4.63;4.05;;;14.60;30.50;;;;;;6249009;28;20060;-77
2021/04/13 14:07:34;;;;;;;4.22;3.40;;;14.50;31.00;;;;;;6249148;28;20406;-77
2021/04/13 14:10:37;;;;;;;4.88;4.22;;;14.70;34.50;;;;;;6250842;28;20072;-77
2021/04/13 14:13:40;;;;;;;4.75;3.28;;;15.00;32.30;;;;;;6249578;28;20077;-77
2021/04/13 14:16:45;;;;;;;3.17;2.88;;;15.10;31.40;;;;;;6260042;28;20046;-78
2021/04/13 14:19:46;;;;;;;4.20;2.60;;;14.70;28.20;;;;;;6259052;28;20045;-79
2021/04/13 14:22:52;;;;;;;6.03;2.95;;;14.40;29.70;;;;;;6254513;28;20460;-79
2021/04/13 14:25:53;;;;;;;4.10;2.97;;;14.40;29.30;;;;;;6254524;28;20042;-78
2021/04/13 14:29:07;;;;;;;4.43;3.00;;;14.60;30.80;;;;;;6253086;28;20076;-77
2021/04/13 14:32:11;;;;;;;3.75;2.65;;;14.70;32.10;;;;;;6252360;28;20080;-77
2021/04/13 14:35:12;;;;;;;3.72;3.10;;;14.20;29.80;;;;;;6252175;28;20141;-78
2021/04/13 14:38:18;;;;;;;3.10;2.40;;;13.90;30.50;;;;;;6252552;28;20045;-79
2021/04/13 14:41:19;;;;;;;3.08;2.70;;;13.80;31.30;;;;;;6254004;28;20075;-78
2021/04/13 14:44:20;;;;;;;2.80;2.60;;;14.00;31.80;;;;;;6254861;28;20128;-79
2021/04/13 14:47:25;;;;;;;3.13;2.83;;;14.00;31.00;;;;;;6254504;28;20045;-78
2021/04/13 14:50:29;;;;;;;7.25;2.38;;;14.20;31.40;;;;;;6255065;28;20392;-79
2021/04/13 14:53:30;;;;;;;2.25;2.05;;;14.20;33.00;;;;;;6255409;28;20069;-78
2021/04/13 14:56:32;;;;;;;2.75;1.90;;;14.30;30.00;;;;;;6259882;28;20564;-78
2021/04/13 14:59:34;;;;;;;2.45;1.95;;;13.80;29.30;;;;;;6264419;28;20067;-79
2021/04/13 15:02:36;;;;;;;3.45;2.58;;;13.50;32.70;;;;;;6295979;28;20075;-80
2021/04/13 15:05:38;;;;;;;3.38;2.30;;;13.40;32.10;;;;;;6302206;28;20414;-80
2021/04/13 15:08:40;;;;;;;2.30;1.98;;;13.00;28.10;;;;;;6303373;28;20142;-80
2021/04/13 15:11:41;;;;;;;4.18;3.58;;;12.80;29.50;;;;;;6303714;28;20066;-79
2021/04/13 15:14:42;;;;;;;4.25;2.58;;;13.00;31.30;;;;;;6283119;28;20077;-80
2021/04/13 15:17:45;;;;;;;6.65;3.03;;;13.20;31.10;;;;;;6277124;28;20589;-79
2021/04/13 15:20:46;;;;;;;9.50;3.85;;;13.20;32.00;;;;;;6278777;28;20056;-80
2021/04/13 15:23:48;;;;;;;3.40;2.45;;;13.20;32.10;;;;;;6278116;28;20064;-80
2021/04/13 15:26:54;;;;;;;3.22;2.33;;;13.10;32.40;;;;;;6278016;28;20072;-80
2021/04/13 15:29:59;;;;;;;3.25;2.40;;;13.20;31.50;;;;;;6278250;28;20132;-80
2021/04/13 15:33:02;;;;;;;2.90;2.53;;;13.10;31.70;;;;;;6277164;28;20513;-80
2021/04/13 15:36:08;;;;;;;4.03;2.90;;;13.10;32.60;;;;;;6276853;28;20471;-79
2021/04/13 15:39:11;;;;;;;2.45;2.22;;;13.10;33.80;;;;;;6277291;28;20502;-79
2021/04/13 15:42:16;;;;;;;7.72;2.88;;;12.90;32.50;;;;;;6276693;28;20049;-79
2021/04/13 15:45:24;;;;;;;5.05;2.33;;;12.80;32.50;;;;;;6276001;28;20059;-79
2021/04/13 15:48:28;;;;;;;;;;;12.70;33.10;;;;;;6277524;28;20053;-78
2021/04/13 15:51:30;;;;;;;8.90;4.95;;;12.50;32.40;;;;;;6276190;28;20307;-79
2021/04/13 15:54:33;;;;;;;2.67;1.98;;;12.50;32.20;;;;;;6278797;28;20419;-79
2021/04/13 15:57:35;;;;;;;2.67;2.30;;;12.50;33.60;;;;;;6266991;28;20232;-78
2021/04/13 16:00:38;;;;;;;2.25;1.65;;;12.50;34.10;;;;;;6251807;28;20136;-77
2021/04/13 16:03:40;;;;;;;6.38;3.88;;;12.40;34.60;;;;;;6251430;28;20037;-80
2021/04/13 16:06:42;;;;;;;4.65;2.90;;;12.30;35.10;;;;;;6251594;28;20108;-78
2021/04/13 16:09:43;;;;;;;8.52;3.63;;;12.20;33.80;;;;;;6250871;28;20470;-78
2021/04/13 16:12:48;;;;;;;5.00;2.63;;;12.00;34.60;;;;;;6255016;28;20068;-78
2021/04/13 16:15:49;;;;;;;3.50;3.00;;;11.80;34.60;;;;;;6274837;28;20041;-77
2021/04/13 16:18:51;;;;;;;7.78;3.58;;;11.70;34.00;;;;;;6274964;28;20127;-78
2021/04/13 16:21:53;;;;;;;5.90;2.45;;;11.60;34.60;;;;;;6274926;28;20163;-78
2021/04/13 16:24:55;;;;;;;8.95;3.05;;;11.60;34.90;;;;;;6272941;28;20127;-77
2021/04/13 16:27:57;;;;;;;3.28;2.55;;;11.70;35.30;;;;;;6274362;28;20517;-78